»·PEaware :: N1965FP KL88-KSBP

N1965FP :: KL88-KSBP

FLIGHT INFORMATION

Flight Status: Arrived
Operator: Privately registered:
United States
More flights under this callsign
Pilot: Freeman P. (27238)
Aircraft: CESSNA 172 SKYHAWK
(C172)
More flights by this aircraft type
Origin: KL88
Destination: KSBP San Luis Co Regl
United States
More flights between these airports :: More routes between these airports
Route: KL88 KSBP
File this flight plan on PilotEdge
Remarks: CAT2
Altitude:
(Current/Filed)
6,500ft
Speed:
(Current/Filed)
120kts
Departed: 11-Feb-20 07:22 PM
Arrived: 11-Feb-20 08:03 PM
Distance/Time
Traveled:
Not Available
Distance/Time
To Go:
Arrived

Flight Plot

Page will automatically refresh every two minutes.

Flight plan parsing failed; only flown route is shown


Map Options




Map Legend


Flown Route
Filed Route
Departure Airport
Arrival Airport
Navaid (VOR, NDB)
Fix

Horizontal Profiles

Position Reports

Time Latitude Longitude Heading Altitude Ground
Speed
11-Feb-20 18:58 34.942782 -119.690556 204 2206ft 0kts
11-Feb-20 18:59 34.942782 -119.690556 204 2206ft 0kts
11-Feb-20 19:00 34.942782 -119.690556 204 2206ft 0kts
11-Feb-20 19:01 34.942782 -119.690556 204 2206ft 0kts
11-Feb-20 19:02 34.942782 -119.690556 204 2206ft 0kts
11-Feb-20 19:03 34.942782 -119.690556 204 2206ft 0kts
11-Feb-20 19:04 34.942782 -119.690556 204 2206ft 0kts
11-Feb-20 19:05 34.942782 -119.690556 204 2206ft 0kts
11-Feb-20 19:06 34.942782 -119.690556 204 2206ft 0kts
11-Feb-20 19:07 34.942782 -119.690556 204 2206ft 0kts
11-Feb-20 19:08 34.942782 -119.690556 204 2206ft 0kts
11-Feb-20 19:09 34.942782 -119.690556 204 2206ft 0kts
11-Feb-20 19:10 34.942782 -119.690556 204 2206ft 0kts
11-Feb-20 19:11 34.942782 -119.690556 204 2206ft 0kts
11-Feb-20 19:12 34.942782 -119.690556 204 2206ft 0kts
11-Feb-20 19:13 34.942782 -119.690556 204 2206ft 0kts
11-Feb-20 19:14 34.942782 -119.690556 203 2206ft 0kts
11-Feb-20 19:15 34.942782 -119.690556 203 2206ft 0kts
11-Feb-20 19:16 34.942781 -119.690556 204 2206ft 0kts
11-Feb-20 19:17 34.942781 -119.690556 204 2206ft 0kts
11-Feb-20 19:18 34.942703 -119.690678 261 2206ft 5kts
11-Feb-20 19:19 34.940341 -119.686548 116 2206ft 26kts
11-Feb-20 19:20 34.937670 -119.679901 19 2206ft 4kts
11-Feb-20 19:21 34.940594 -119.686963 293 2254ft 81kts
11-Feb-20 19:22 34.952021 -119.711572 300 3072ft 87kts
11-Feb-20 19:23 34.967222 -119.733840 306 3849ft 88kts
11-Feb-20 19:24 34.982513 -119.756459 308 4526ft 89kts
11-Feb-20 19:25 35.001005 -119.775919 323 5166ft 90kts
11-Feb-20 19:26 35.020407 -119.794554 320 5781ft 91kts
11-Feb-20 19:28 35.038025 -119.815890 297 6401ft 92kts
11-Feb-20 19:29 35.050185 -119.842825 287 6781ft 96kts
11-Feb-20 19:30 35.059453 -119.872074 297 6893ft 93kts
11-Feb-20 19:31 35.069961 -119.901146 290 6640ft 96kts
11-Feb-20 19:32 35.079473 -119.930679 288 6436ft 95kts
11-Feb-20 19:33 35.089307 -119.959868 291 6236ft 94kts
11-Feb-20 19:34 35.100078 -119.988222 301 6070ft 94kts
11-Feb-20 19:35 35.112284 -120.015526 292 6059ft 92kts
11-Feb-20 19:36 35.120088 -120.044886 279 6220ft 92kts
11-Feb-20 19:37 35.121926 -120.075675 268 6387ft 93kts
11-Feb-20 19:38 35.120863 -120.106488 278 6542ft 94kts
11-Feb-20 19:39 35.127621 -120.136248 282 6646ft 94kts
11-Feb-20 19:40 35.132405 -120.166427 278 6783ft 93kts
11-Feb-20 19:41 35.134627 -120.196618 275 6897ft 93kts
11-Feb-20 19:42 35.137819 -120.226787 265 7001ft 94kts
11-Feb-20 19:43 35.136698 -120.258255 266 7115ft 94kts
11-Feb-20 19:44 35.138488 -120.289130 282 6915ft 94kts
11-Feb-20 19:45 35.133920 -120.315414 175 6582ft 101kts
11-Feb-20 19:46 35.138905 -120.307125 269 6163ft 100kts
11-Feb-20 19:46 35.125578 -120.302698 79 5679ft 97kts
11-Feb-20 19:48 35.148294 -120.297451 301 4764ft 93kts
11-Feb-20 19:49 35.152040 -120.326982 276 4099ft 90kts
11-Feb-20 19:50 35.153106 -120.356349 271 3591ft 90kts
11-Feb-20 19:50 35.154831 -120.380762 277 3349ft 88kts
11-Feb-20 19:51 35.157623 -120.408920 275 3106ft 87kts
11-Feb-20 19:52 35.160822 -120.436421 283 2859ft 87kts
11-Feb-20 19:53 35.168443 -120.463452 291 2578ft 86kts
11-Feb-20 19:54 35.173399 -120.489950 291 2323ft 85kts
11-Feb-20 19:56 35.182938 -120.517080 295 1920ft 86kts
11-Feb-20 19:56 35.191153 -120.534229 308 1598ft 74kts
11-Feb-20 19:57 35.199467 -120.552810 304 1099ft 68kts
11-Feb-20 19:58 35.207658 -120.569377 307 815ft 72kts
11-Feb-20 19:59 35.213771 -120.588758 276 741ft 75kts
11-Feb-20 20:00 35.219487 -120.608001 298 699ft 73kts
11-Feb-20 20:01 35.228412 -120.625196 304 434ft 73kts
11-Feb-20 20:02 35.237186 -120.639920 350 215ft 20kts
11-Feb-20 20:03 35.237447 -120.638383 77 215ft 14kts
11-Feb-20 20:04 35.237782 -120.637989 359 215ft 0kts
11-Feb-20 20:05 35.237782 -120.637989 359 215ft 0kts
11-Feb-20 20:06 35.237782 -120.637989 359 215ft 0kts

Navigation Log

Ident Type
Flight plan parsing failed, navigation log unavailable